Delta Pioneer — SYIO — position and weather

sailwx.info

Track history (hours):
 
Tides and Currents Weather Stations Pressure Air Temp Water Temp Dewpoint Dewpoint Depression Visibility Wind Speed Wind Dir Waves Ship Positions

Delta Pioneer

Last reported at 2015-Jul-27 00:33 UTC. Time now 2015-Jul-30 04:05 UTC.
Position N 40°14' W 009°57'.

Length 249 m; draft 12.1 m.

Type: Tanker. MMSI: 240244000.

Date/timePositionNaut miles runAvg speedWind from/ knotsBaromVisibWave heightAir tempDewpointWater temp
2015-Jul-27 00:33N 40°14' W 009°57'1212.1
2015-Jul-26 23:33N 40°02' W 009°57'2411.8
2015-Jul-26 21:29N 39°37' W 009°57'1211.3
2015-Jul-26 20:25N 39°25' W 009°57'1011.5
2015-Jul-26 19:33N 39°15' W 009°57'1111.5
2015-Jul-26 18:33N 39°04' W 009°57'1211.7
2015-Jul-26 17:33N 38°52' W 009°57'1111.4
2015-Jul-26 16:33N 38°41' W 009°57'1111.1
2015-Jul-26 15:33N 38°30' W 009°54'1111.2
2015-Jul-26 14:33N 38°19' W 009°50'1110.5
2015-Jul-26 13:33N 38°09' W 009°47'1010.3
2015-Jul-26 12:33N 37°59' W 009°44'1010.0
2015-Jul-26 11:33N 37°49' W 009°42'1110.6
2015-Jul-26 10:33N 37°39' W 009°38'1111.1
2015-Jul-26 09:33N 37°28' W 009°35'1110.8
2015-Jul-26 08:33N 37°18' W 009°32'1010.1
2015-Jul-26 07:33N 37°08' W 009°29'10 9.5
2015-Jul-26 06:33N 36°58' W 009°26'9 9.6
2015-Jul-26 05:33N 36°49' W 009°22'1111.2
2015-Jul-26 04:33N 36°41' W 009°13'1110.9
2015-Jul-26 03:33N 36°37' W 008°60'1111.4
2015-Jul-26 02:33N 36°34' W 008°46'1211.7
2015-Jul-26 01:33N 36°31' W 008°32'1211.6
2015-Jul-26 00:33N 36°27' W 008°19'1211.6
2015-Jul-25 23:33N 36°23' W 008°05'1211.7
2015-Jul-25 22:33N 36°19' W 007°51'22210.5
2015-Jul-25 01:25N 36°18' W 003°15'910.9
2015-Jul-25 00:33N 36°19' W 003°04'1110.6
2015-Jul-24 23:33N 36°21' W 002°51'1010.3
2015-Jul-24 22:33N 36°23' W 002°38'1010.2
2015-Jul-24 21:33N 36°24' W 002°25'1110.7
2015-Jul-24 20:33N 36°26' W 002°12'1110.8
2015-Jul-24 19:33N 36°28' W 001°59'1111.5
2015-Jul-24 18:33N 36°30' W 001°45'1111.4
2015-Jul-24 17:33N 36°31' W 001°31'1212.2
2015-Jul-24 16:34N 36°33' W 001°16'1312.4
2015-Jul-24 15:33N 36°35' W 001°01'1111.3
2015-Jul-24 14:33N 36°37' W 000°47'1211.4
2015-Jul-24 13:32N 36°39' W 000°32'1111.4
2015-Jul-24 12:32N 36°41' W 000°18'1111.2
2015-Jul-24 11:32N 36°42' W 000°05'1111.4
2015-Jul-24 10:33N 36°44' E 000°09'1111.2
2015-Jul-24 09:32N 36°46' E 000°23'1111.3
2015-Jul-24 08:33N 36°48' E 000°37'1211.7
2015-Jul-24 07:31N 36°50' E 000°52'1310.9
2015-Jul-24 06:21N 36°52' E 001°08'911.2
2015-Jul-24 05:33N 36°53' E 001°19'1311.1
2015-Jul-24 04:24N 36°56' E 001°34'3611.4
2015-Jul-24 01:14N 37°01' E 002°19'811.1
2015-Jul-24 00:32N 37°03' E 002°29'1111.2
2015-Jul-23 23:30N 37°05' E 002°43'1211.3
2015-Jul-23 22:28N 37°06' E 002°57'2211.2
2015-Jul-23 20:30N 37°09' E 003°25'1511.3
2015-Jul-23 19:12N 37°12' E 003°43'711.3
2015-Jul-23 18:33N 37°13' E 003°52'1111.3
2015-Jul-23 17:33N 37°15' E 004°06'1511.4
2015-Jul-23 16:15N 37°18' E 004°24'811.5
2015-Jul-23 15:32N 37°19' E 004°35'1111.4
2015-Jul-23 14:32N 37°20' E 004°49'4611.5
2015-Jul-23 10:33N 37°28' E 005°46'1111.1
2015-Jul-23 09:33N 37°30' E 005°59'12611.3
2015-Jul-22 22:22N 37°43' E 008°37'1411.7
2015-Jul-22 21:11N 37°43' E 008°55'6611.3
2015-Jul-22 15:23N 37°40' E 010°18'1011.4
2015-Jul-22 14:32N 37°38' E 010°30'1111.0
2015-Jul-22 13:33N 37°36' E 010°43'1111.3
2015-Jul-22 12:33N 37°34' E 010°57'1111.0
2015-Jul-22 11:33N 37°29' E 011°09'1111.2
2015-Jul-22 10:33N 37°23' E 011°21'1111.2
2015-Jul-22 09:33N 37°17' E 011°33'1111.4
2015-Jul-22 08:33N 37°11' E 011°46'1111.3
2015-Jul-22 07:33N 37°05' E 011°58'1111.3
2015-Jul-22 06:33N 37°01' E 012°11'1211.4
2015-Jul-22 05:33N 36°57' E 012°25'1211.5
2015-Jul-22 04:33N 36°54' E 012°38'1111.2
2015-Jul-22 03:33N 36°51' E 012°52'1111.2
2015-Jul-22 02:33N 36°48' E 013°05'1111.1
2015-Jul-22 01:33N 36°45' E 013°19'1111.3
2015-Jul-22 00:33N 36°41' E 013°32'1110.8
2015-Jul-21 23:33N 36°37' E 013°44'1111.2
2015-Jul-21 22:33N 36°34' E 013°58'1111.2
2015-Jul-21 21:33N 36°31' E 014°11'1211.5
2015-Jul-21 20:33N 36°27' E 014°25'1111.3
2015-Jul-21 19:34N 36°25' E 014°38'1111.3
2015-Jul-21 18:33N 36°25' E 014°53'1111.3
2015-Jul-21 17:33N 36°25' E 015°07'1111.3
2015-Jul-21 16:33N 36°24' E 015°21'1111.4
2015-Jul-21 15:32N 36°24' E 015°35'1111.3
2015-Jul-21 14:32N 36°24' E 015°49'37511.0
2015-Jul-20 04:31N 36°41' E 023°36'1110.7
2015-Jul-20 03:30N 36°49' E 023°45'6610.9
2015-Jul-19 21:25N 37°44' E 024°31'4411.0
2015-Jul-19 17:28N 38°24' E 024°53'18410.6
2015-Jul-19 00:06N 40°45' E 027°27'64 6.5
2015-Jul-18 14:13N 40°55' E 028°51'6 8.9
2015-Jul-18 13:33N 40°58' E 028°58'1210.4
2015-Jul-18 12:25N 41°09' E 029°04'  
Track history (hours):
 
Tides and Currents Weather Stations Pressure Air Temp Water Temp Dewpoint Dewpoint Depression Visibility Wind Speed Wind Dir Waves Ship Positions

Delta Pioneer

Last reported at 2015-Jul-27 00:33 UTC. Time now 2015-Jul-30 04:05 UTC.
Position N 40°14' W 009°57'.

Length 249 m; draft 12.1 m.

Type: Tanker. MMSI: 240244000.

Date/timePositionNaut miles runAvg speedWind from/ knotsBaromVisibWave heightAir tempDewpointWater temp
2015-Jul-27 00:33N 40°14' W 009°57'1212.1
2015-Jul-26 23:33N 40°02' W 009°57'2411.8
2015-Jul-26 21:29N 39°37' W 009°57'1211.3
2015-Jul-26 20:25N 39°25' W 009°57'1011.5
2015-Jul-26 19:33N 39°15' W 009°57'1111.5
2015-Jul-26 18:33N 39°04' W 009°57'1211.7
2015-Jul-26 17:33N 38°52' W 009°57'1111.4
2015-Jul-26 16:33N 38°41' W 009°57'1111.1
2015-Jul-26 15:33N 38°30' W 009°54'1111.2
2015-Jul-26 14:33N 38°19' W 009°50'1110.5
2015-Jul-26 13:33N 38°09' W 009°47'1010.3
2015-Jul-26 12:33N 37°59' W 009°44'1010.0
2015-Jul-26 11:33N 37°49' W 009°42'1110.6
2015-Jul-26 10:33N 37°39' W 009°38'1111.1
2015-Jul-26 09:33N 37°28' W 009°35'1110.8
2015-Jul-26 08:33N 37°18' W 009°32'1010.1
2015-Jul-26 07:33N 37°08' W 009°29'10 9.5
2015-Jul-26 06:33N 36°58' W 009°26'9 9.6
2015-Jul-26 05:33N 36°49' W 009°22'1111.2
2015-Jul-26 04:33N 36°41' W 009°13'1110.9
2015-Jul-26 03:33N 36°37' W 008°60'1111.4
2015-Jul-26 02:33N 36°34' W 008°46'1211.7
2015-Jul-26 01:33N 36°31' W 008°32'1211.6
2015-Jul-26 00:33N 36°27' W 008°19'1211.6
2015-Jul-25 23:33N 36°23' W 008°05'1211.7
2015-Jul-25 22:33N 36°19' W 007°51'22210.5
2015-Jul-25 01:25N 36°18' W 003°15'910.9
2015-Jul-25 00:33N 36°19' W 003°04'1110.6
2015-Jul-24 23:33N 36°21' W 002°51'1010.3
2015-Jul-24 22:33N 36°23' W 002°38'1010.2
2015-Jul-24 21:33N 36°24' W 002°25'1110.7
2015-Jul-24 20:33N 36°26' W 002°12'1110.8
2015-Jul-24 19:33N 36°28' W 001°59'1111.5
2015-Jul-24 18:33N 36°30' W 001°45'1111.4
2015-Jul-24 17:33N 36°31' W 001°31'1212.2
2015-Jul-24 16:34N 36°33' W 001°16'1312.4
2015-Jul-24 15:33N 36°35' W 001°01'1111.3
2015-Jul-24 14:33N 36°37' W 000°47'1211.4
2015-Jul-24 13:32N 36°39' W 000°32'1111.4
2015-Jul-24 12:32N 36°41' W 000°18'1111.2
2015-Jul-24 11:32N 36°42' W 000°05'1111.4
2015-Jul-24 10:33N 36°44' E 000°09'1111.2
2015-Jul-24 09:32N 36°46' E 000°23'1111.3
2015-Jul-24 08:33N 36°48' E 000°37'1211.7
2015-Jul-24 07:31N 36°50' E 000°52'1310.9
2015-Jul-24 06:21N 36°52' E 001°08'911.2
2015-Jul-24 05:33N 36°53' E 001°19'1311.1
2015-Jul-24 04:24N 36°56' E 001°34'3611.4
2015-Jul-24 01:14N 37°01' E 002°19'811.1
2015-Jul-24 00:32N 37°03' E 002°29'1111.2
2015-Jul-23 23:30N 37°05' E 002°43'1211.3
2015-Jul-23 22:28N 37°06' E 002°57'2211.2
2015-Jul-23 20:30N 37°09' E 003°25'1511.3
2015-Jul-23 19:12N 37°12' E 003°43'711.3
2015-Jul-23 18:33N 37°13' E 003°52'1111.3
2015-Jul-23 17:33N 37°15' E 004°06'1511.4
2015-Jul-23 16:15N 37°18' E 004°24'811.5
2015-Jul-23 15:32N 37°19' E 004°35'1111.4
2015-Jul-23 14:32N 37°20' E 004°49'4611.5
2015-Jul-23 10:33N 37°28' E 005°46'1111.1
2015-Jul-23 09:33N 37°30' E 005°59'12611.3
2015-Jul-22 22:22N 37°43' E 008°37'1411.7
2015-Jul-22 21:11N 37°43' E 008°55'6611.3
2015-Jul-22 15:23N 37°40' E 010°18'1011.4
2015-Jul-22 14:32N 37°38' E 010°30'1111.0
2015-Jul-22 13:33N 37°36' E 010°43'1111.3
2015-Jul-22 12:33N 37°34' E 010°57'1111.0
2015-Jul-22 11:33N 37°29' E 011°09'1111.2
2015-Jul-22 10:33N 37°23' E 011°21'1111.2
2015-Jul-22 09:33N 37°17' E 011°33'1111.4
2015-Jul-22 08:33N 37°11' E 011°46'1111.3
2015-Jul-22 07:33N 37°05' E 011°58'1111.3
2015-Jul-22 06:33N 37°01' E 012°11'1211.4
2015-Jul-22 05:33N 36°57' E 012°25'1211.5
2015-Jul-22 04:33N 36°54' E 012°38'1111.2
2015-Jul-22 03:33N 36°51' E 012°52'1111.2
2015-Jul-22 02:33N 36°48' E 013°05'1111.1
2015-Jul-22 01:33N 36°45' E 013°19'1111.3
2015-Jul-22 00:33N 36°41' E 013°32'1110.8
2015-Jul-21 23:33N 36°37' E 013°44'1111.2
2015-Jul-21 22:33N 36°34' E 013°58'1111.2
2015-Jul-21 21:33N 36°31' E 014°11'1211.5
2015-Jul-21 20:33N 36°27' E 014°25'1111.3
2015-Jul-21 19:34N 36°25' E 014°38'1111.3
2015-Jul-21 18:33N 36°25' E 014°53'1111.3
2015-Jul-21 17:33N 36°25' E 015°07'1111.3
2015-Jul-21 16:33N 36°24' E 015°21'1111.4
2015-Jul-21 15:32N 36°24' E 015°35'1111.3
2015-Jul-21 14:32N 36°24' E 015°49'37511.0
2015-Jul-20 04:31N 36°41' E 023°36'1110.7
2015-Jul-20 03:30N 36°49' E 023°45'6610.9
2015-Jul-19 21:25N 37°44' E 024°31'4411.0
2015-Jul-19 17:28N 38°24' E 024°53'18410.6
2015-Jul-19 00:06N 40°45' E 027°27'64 6.5
2015-Jul-18 14:13N 40°55' E 028°51'6 8.9
2015-Jul-18 13:33N 40°58' E 028°58'1210.4
2015-Jul-18 12:25N 41°09' E 029°04'  

Dump ship's entire track history